Time,TemperatureF,DewpointF,PressureIn,WindDirection,WindDirectionDegrees,WindSpeedMPH,WindSpeedGustMPH,Humidity,HourlyPrecipIn,Conditions,Clouds,dailyrainin,SolarRadiationWatts/m^2,SoftwareType,DateUTC
2013-09-03 01:42:00,62.0,52.0,-100.00,NNW,342,2.0,4.0,70,-99.99,,,0.00,0.000000,,2013-09-03 07:42:00,
2013-09-03 01:52:00,62.0,52.0,-100.00,NNW,342,2.0,4.0,70,-99.99,,,0.00,0.000000,,2013-09-03 07:52:00,
2013-09-03 02:22:00,63.0,52.0,-100.00,NNW,335,2.0,4.0,68,0.00,,,0.00,0.000000,,2013-09-03 08:22:00,
2013-09-03 02:32:00,63.0,52.0,-100.00,NNW,335,2.0,4.0,68,0.00,,,0.00,0.000000,,2013-09-03 08:32:00,
2013-09-03 02:42:00,63.0,52.0,-100.00,NNW,335,2.0,4.0,68,0.00,,,0.00,0.000000,,2013-09-03 08:42:00,
2013-09-03 02:52:00,63.0,52.0,-100.00,NNW,335,2.0,4.0,68,0.00,,,0.00,0.000000,,2013-09-03 08:52:00,
2013-09-03 03:22:00,63.0,53.0,-100.00,NNW,333,2.0,5.0,70,0.00,,,0.00,0.000000,,2013-09-03 09:22:00,
2013-09-03 03:33:00,63.0,53.0,-100.00,NNW,333,2.0,5.0,70,0.00,,,0.00,0.000000,,2013-09-03 09:33:00,
2013-09-03 03:43:00,63.0,53.0,-100.00,NNW,333,2.0,5.0,70,0.00,,,0.00,0.000000,,2013-09-03 09:43:00,
2013-09-03 03:53:00,63.0,53.0,-100.00,NNW,333,2.0,5.0,70,0.00,,,0.00,0.000000,,2013-09-03 09:53:00,
2013-09-03 04:23:00,64.0,54.0,-100.00,NW,307,2.0,6.0,71,0.00,,,0.00,0.000000,,2013-09-03 10:23:00,
2013-09-03 04:33:00,64.0,54.0,-100.00,NW,307,2.0,6.0,71,0.00,,,0.00,0.000000,,2013-09-03 10:33:00,
2013-09-03 04:42:00,64.0,54.0,-100.00,NW,307,2.0,6.0,71,0.00,,,0.00,0.000000,,2013-09-03 10:42:00,
2013-09-03 04:53:00,64.0,54.0,-100.00,NW,307,2.0,6.0,71,0.00,,,0.00,0.000000,,2013-09-03 10:53:00,
2013-09-03 05:23:00,65.0,54.0,-100.00,WNW,303,0.0,4.0,68,0.00,,,0.00,0.000000,,2013-09-03 11:23:00,
2013-09-03 05:33:00,65.0,54.0,-100.00,WNW,303,0.0,4.0,68,0.00,,,0.00,0.000000,,2013-09-03 11:33:00,
2013-09-03 05:43:00,65.0,54.0,-100.00,WNW,303,0.0,4.0,68,0.00,,,0.00,0.000000,,2013-09-03 11:43:00,
2013-09-03 05:52:00,65.0,54.0,-100.00,WNW,303,0.0,4.0,68,0.00,,,0.00,0.000000,,2013-09-03 11:52:00,
2013-09-03 06:22:00,65.0,55.0,-100.00,SSE,151,2.0,4.0,70,0.00,,,0.00,0.000000,,2013-09-03 12:22:00,
2013-09-03 06:32:00,65.0,55.0,-100.00,SSE,151,2.0,4.0,70,0.00,,,0.00,0.000000,,2013-09-03 12:32:00,
2013-09-03 06:42:00,65.0,55.0,-100.00,SSE,151,2.0,4.0,70,0.00,,,0.00,0.000000,,2013-09-03 12:42:00,
2013-09-03 06:52:00,65.0,55.0,-100.00,SSE,151,2.0,4.0,70,0.00,,,0.00,0.000000,,2013-09-03 12:52:00,
2013-09-03 07:22:00,65.0,55.0,-100.00,NW,304,1.0,2.0,71,0.00,,,0.00,4.000000,,2013-09-03 13:22:00,
2013-09-03 07:32:00,65.0,55.0,-100.00,NW,304,1.0,2.0,71,0.00,,,0.00,4.000000,,2013-09-03 13:32:00,
2013-09-03 07:42:00,65.0,55.0,-100.00,NW,304,1.0,2.0,71,0.00,,,0.00,4.000000,,2013-09-03 13:42:00,
2013-09-03 07:52:00,65.0,55.0,-100.00,NW,304,1.0,2.0,71,0.00,,,0.00,4.000000,,2013-09-03 13:52:00,
2013-09-03 08:21:00,68.0,57.0,-100.00,NNW,348,2.0,5.0,67,0.00,,,0.00,73.000000,,2013-09-03 14:21:00,
2013-09-03 08:32:00,68.0,57.0,-100.00,NNW,348,2.0,5.0,67,0.00,,,0.00,73.000000,,2013-09-03 14:32:00,
2013-09-03 08:42:00,68.0,57.0,-100.00,NNW,348,2.0,5.0,67,0.00,,,0.00,73.000000,,2013-09-03 14:42:00,
2013-09-03 08:52:00,68.0,57.0,-100.00,NNW,348,2.0,5.0,67,0.00,,,0.00,73.000000,,2013-09-03 14:52:00,
2013-09-03 09:22:00,81.0,57.0,-100.00,NE,56,3.0,5.0,44,0.00,,,0.00,331.000000,,2013-09-03 15:22:00,
2013-09-03 09:34:00,81.0,57.0,-100.00,NE,56,3.0,5.0,44,0.00,,,0.00,331.000000,,2013-09-03 15:34:00,
2013-09-03 09:43:00,81.0,57.0,-100.00,NE,56,3.0,5.0,44,0.00,,,0.00,331.000000,,2013-09-03 15:43:00,
2013-09-03 09:54:00,81.0,57.0,-100.00,NE,56,3.0,5.0,44,0.00,,,0.00,331.000000,,2013-09-03 15:54:00,
2013-09-03 10:24:00,85.0,53.0,-100.00,NNE,16,4.0,8.0,33,0.00,,,0.00,503.000000,,2013-09-03 16:24:00,
2013-09-03 10:33:00,85.0,53.0,-100.00,NNE,16,4.0,8.0,33,0.00,,,0.00,503.000000,,2013-09-03 16:33:00,
2013-09-03 10:43:00,85.0,53.0,-100.00,NNE,16,4.0,8.0,33,0.00,,,0.00,503.000000,,2013-09-03 16:43:00,
2013-09-03 10:54:00,85.0,53.0,-100.00,NNE,16,4.0,8.0,33,0.00,,,0.00,503.000000,,2013-09-03 16:54:00,
2013-09-03 11:23:00,85.0,55.0,-100.00,NE,46,5.0,12.0,36,0.00,,,0.00,662.000000,,2013-09-03 17:23:00,
2013-09-03 11:34:00,85.0,55.0,-100.00,NE,46,5.0,12.0,36,0.00,,,0.00,662.000000,,2013-09-03 17:34:00,
2013-09-03 11:43:00,85.0,55.0,-100.00,NE,46,5.0,12.0,36,0.00,,,0.00,662.000000,,2013-09-03 17:43:00,
2013-09-03 11:52:00,85.0,55.0,-100.00,NE,46,5.0,12.0,36,0.00,,,0.00,662.000000,,2013-09-03 17:52:00,
2013-09-03 12:22:00,85.0,57.0,-100.00,NE,45,5.0,14.0,38,0.00,,,0.00,766.000000,,2013-09-03 18:22:00,
2013-09-03 12:32:00,85.0,57.0,-100.00,NE,45,5.0,14.0,38,0.00,,,0.00,766.000000,,2013-09-03 18:32:00,
2013-09-03 12:43:00,85.0,57.0,-100.00,NE,45,5.0,14.0,38,0.00,,,0.00,766.000000,,2013-09-03 18:43:00,
2013-09-03 12:52:00,85.0,57.0,-100.00,NE,45,5.0,14.0,38,0.00,,,0.00,766.000000,,2013-09-03 18:52:00,
2013-09-03 13:22:00,83.0,58.0,-100.00,East,93,3.0,11.0,42,0.00,,,0.00,454.000000,,2013-09-03 19:22:00,
2013-09-03 13:32:00,83.0,58.0,-100.00,East,93,3.0,11.0,42,0.00,,,0.00,454.000000,,2013-09-03 19:32:00,
2013-09-03 13:42:00,83.0,58.0,-100.00,East,93,3.0,11.0,42,0.00,,,0.00,454.000000,,2013-09-03 19:42:00,
2013-09-03 13:52:00,83.0,58.0,-100.00,East,93,3.0,11.0,42,0.00,,,0.00,454.000000,,2013-09-03 19:52:00,
2013-09-03 14:22:00,85.0,57.0,-100.00,NNE,22,5.0,14.0,39,0.00,,,0.00,695.000000,,2013-09-03 20:22:00,
2013-09-03 14:32:00,85.0,57.0,-100.00,NNE,22,5.0,14.0,39,0.00,,,0.00,695.000000,,2013-09-03 20:32:00,
2013-09-03 14:42:00,85.0,57.0,-100.00,NNE,22,5.0,14.0,39,0.00,,,0.00,695.000000,,2013-09-03 20:42:00,
2013-09-03 14:52:00,85.0,57.0,-100.00,NNE,22,5.0,14.0,39,0.00,,,0.00,695.000000,,2013-09-03 20:52:00,
2013-09-03 15:22:00,89.0,57.0,-100.00,ESE,114,5.0,13.0,34,0.00,,,0.00,740.000000,,2013-09-03 21:22:00,
2013-09-03 15:34:00,89.0,57.0,-100.00,ESE,114,5.0,13.0,34,0.00,,,0.00,740.000000,,2013-09-03 21:34:00,
2013-09-03 15:44:00,89.0,57.0,-100.00,ESE,114,5.0,13.0,34,0.00,,,0.00,740.000000,,2013-09-03 21:44:00,
2013-09-03 15:54:00,89.0,57.0,-100.00,ESE,114,5.0,13.0,34,0.00,,,0.00,740.000000,,2013-09-03 21:54:00,
2013-09-03 16:23:00,86.0,58.0,-100.00,ENE,70,4.0,12.0,39,0.00,,,0.00,488.000000,,2013-09-03 22:23:00,
2013-09-03 16:34:00,86.0,58.0,-100.00,ENE,70,4.0,12.0,39,0.00,,,0.00,488.000000,,2013-09-03 22:34:00,
2013-09-03 16:43:00,86.0,58.0,-100.00,ENE,70,4.0,12.0,39,0.00,,,0.00,488.000000,,2013-09-03 22:43:00,
2013-09-03 16:52:00,86.0,58.0,-100.00,ENE,70,4.0,12.0,39,0.00,,,0.00,488.000000,,2013-09-03 22:52:00,
2013-09-03 17:22:00,83.0,56.0,-100.00,NE,55,3.0,13.0,40,0.00,,,0.00,418.000000,,2013-09-03 23:22:00,
2013-09-03 17:34:00,83.0,56.0,-100.00,NE,55,3.0,13.0,40,0.00,,,0.00,418.000000,,2013-09-03 23:34:00,
2013-09-03 17:42:00,83.0,56.0,-100.00,NE,55,3.0,13.0,40,0.00,,,0.00,418.000000,,2013-09-03 23:42:00,
2013-09-03 17:53:00,83.0,56.0,-100.00,NE,55,3.0,13.0,40,0.00,,,0.00,418.000000,,2013-09-03 23:53:00,
2013-09-03 18:22:00,83.0,58.0,-100.00,ENE,69,4.0,14.0,42,0.00,,,0.00,285.000000,,2013-09-04 00:22:00,
2013-09-03 18:32:00,83.0,58.0,-100.00,ENE,69,4.0,14.0,42,0.00,,,0.00,285.000000,,2013-09-04 00:32:00,
2013-09-03 18:42:00,83.0,58.0,-100.00,ENE,69,4.0,14.0,42,0.00,,,0.00,285.000000,,2013-09-04 00:42:00,
2013-09-03 18:52:00,83.0,58.0,-100.00,ENE,69,4.0,14.0,42,0.00,,,0.00,285.000000,,2013-09-04 00:52:00,
2013-09-03 19:22:00,78.0,57.0,-100.00,ESE,113,4.0,10.0,49,0.00,,,0.00,96.000000,,2013-09-04 01:22:00,
2013-09-03 19:32:00,78.0,57.0,-100.00,ESE,113,4.0,10.0,49,0.00,,,0.00,96.000000,,2013-09-04 01:32:00,
2013-09-03 19:42:00,78.0,57.0,-100.00,ESE,113,4.0,10.0,49,0.00,,,0.00,96.000000,,2013-09-04 01:42:00,
2013-09-03 19:52:00,78.0,57.0,-100.00,ESE,113,4.0,10.0,49,0.00,,,0.00,96.000000,,2013-09-04 01:52:00,
2013-09-03 20:22:00,74.0,58.0,-100.00,ESE,120,2.0,9.0,57,0.00,,,0.00,8.000000,,2013-09-04 02:22:00,
2013-09-03 20:32:00,74.0,58.0,-100.00,ESE,120,2.0,9.0,57,0.00,,,0.00,8.000000,,2013-09-04 02:32:00,
2013-09-03 20:43:00,74.0,58.0,-100.00,ESE,120,2.0,9.0,57,0.00,,,0.00,8.000000,,2013-09-04 02:43:00,
2013-09-03 20:52:00,74.0,58.0,-100.00,ESE,120,2.0,9.0,57,0.00,,,0.00,8.000000,,2013-09-04 02:52:00,
2013-09-03 21:22:00,69.0,57.0,-100.00,NNW,334,1.0,3.0,65,0.00,,,0.00,0.000000,,2013-09-04 03:22:00,
2013-09-03 21:35:00,69.0,57.0,-100.00,NNW,334,1.0,3.0,65,0.00,,,0.00,0.000000,,2013-09-04 03:35:00,
2013-09-03 21:44:00,69.0,57.0,-100.00,NNW,334,1.0,3.0,65,0.00,,,0.00,0.000000,,2013-09-04 03:44:00,
2013-09-03 21:54:00,69.0,57.0,-100.00,NNW,334,1.0,3.0,65,0.00,,,0.00,0.000000,,2013-09-04 03:54:00,
2013-09-03 22:24:00,65.0,56.0,-100.00,NW,321,1.0,3.0,74,0.00,,,0.00,0.000000,,2013-09-04 04:24:00,
2013-09-03 22:33:00,65.0,56.0,-100.00,NW,321,1.0,3.0,74,0.00,,,0.00,0.000000,,2013-09-04 04:33:00,
2013-09-03 22:44:00,65.0,56.0,-100.00,NW,321,1.0,3.0,74,0.00,,,0.00,0.000000,,2013-09-04 04:44:00,
2013-09-03 22:54:00,65.0,56.0,-100.00,NW,321,1.0,3.0,74,0.00,,,0.00,0.000000,,2013-09-04 04:54:00,
2013-09-03 23:23:00,62.0,56.0,-100.00,WNW,291,2.0,3.0,80,0.00,,,0.00,0.000000,,2013-09-04 05:23:00,
2013-09-03 23:34:00,62.0,56.0,-100.00,WNW,291,2.0,3.0,80,0.00,,,0.00,0.000000,,2013-09-04 05:34:00,
2013-09-03 23:43:00,62.0,56.0,-100.00,WNW,291,2.0,3.0,80,0.00,,,0.00,0.000000,,2013-09-04 05:43:00,
2013-09-03 23:52:00,62.0,56.0,-100.00,WNW,291,2.0,3.0,80,0.00,,,0.00,0.000000,,2013-09-04 05:52:00,